This is the latest recevied weather packets stored in our database for station/object OH1KK. If no packets are shown the sender has not sent any weather packets the latest 10 day(s).
| Time | Temp. | Humidity | Pressure | Rain* | Wind** | Luminosity | Snow |
|---|---|---|---|---|---|---|---|
| 1777835043 | 3.89° C | 54% | 1000.4 hPa | 0 mm | - | - | - |
| 1777834190 | 5° C | 51% | 1000.3 hPa | 0 mm | - | - | - |
| 1777833275 | 5.56° C | 48% | 1000.2 hPa | 0 mm | - | - | - |
| 1777832360 | 6.11° C | 46% | 1000.1 hPa | 0 mm | - | - | - |
| 1777831445 | 6.67° C | 41% | 999.9 hPa | 0 mm | - | - | - |
| 1777830590 | 7.22° C | 40% | 1000 hPa | 0 mm | - | - | - |
| 1777829675 | 7.22° C | 37% | 999.8 hPa | 0 mm | - | - | - |
| 1777827845 | 7.78° C | 35% | 999.7 hPa | 0 mm | - | - | - |
| 1777826991 | 8.33° C | 36% | 999.7 hPa | 0 mm | - | - | - |
| 1777826076 | 8.89° C | 34% | 999.8 hPa | 0 mm | - | - | - |
| 1777825161 | 8.89° C | 34% | 999.8 hPa | 0 mm | - | - | - |
| 1777824246 | 8.89° C | 34% | 999.8 hPa | 0 mm | - | - | - |
| 1777823392 | 9.44° C | 33% | 999.8 hPa | 0 mm | - | - | - |
| 1777822477 | 8.89° C | 33% | 999.9 hPa | 0 mm | - | - | - |
| 1777820647 | 9.44° C | 32% | 1000 hPa | 0 mm | - | - | - |
| 1777819793 | 9.44° C | 32% | 1000 hPa | 0 mm | - | - | - |
| 1777818878 | 9.44° C | 33% | 1000 hPa | 0 mm | - | - | - |
| 1777817048 | 9.44° C | 35% | 1000.1 hPa | 0 mm | - | - | - |
| 1777816193 | 9.44° C | 33% | 1000.1 hPa | 0 mm | - | - | - |
| 1777815278 | 9.44° C | 37% | 999.9 hPa | 0 mm | - | - | - |
| 1777814363 | 9.44° C | 38% | 999.9 hPa | 0 mm | - | - | - |
| 1777813458 | 9.44° C | 39% | 999.7 hPa | 0 mm | - | - | - |
| 1777812594 | 9.44° C | 38% | 1000 hPa | 0 mm | - | - | - |
| 1777811678 | 9.44° C | 39% | 1000 hPa | 0 mm | - | - | - |
| 1777810763 | 9.44° C | 39% | 999.9 hPa | 0 mm | - | - | - |
* Rain latest hour (hover to see other rain measurements)
** Current wind speed in m/s (hover to see current wind gust speed)